sensor_id;sensor_type;location;lat;lon;timestamp;P1;durP1;ratioP1;P2;durP2;ratioP2
47812;SDS011;34221;45.296;9.516;2024-02-23T00:00:09;9.80;;;6.72;;
47812;SDS011;34221;45.296;9.516;2024-02-23T00:00:25;8.48;;;6.40;;
47812;SDS011;34221;45.296;9.516;2024-02-23T00:00:40;8.40;;;6.60;;
47812;SDS011;34221;45.296;9.516;2024-02-23T00:00:55;10.05;;;7.30;;
47812;SDS011;34221;45.296;9.516;2024-02-23T00:01:10;9.68;;;7.03;;
47812;SDS011;34221;45.296;9.516;2024-02-23T00:01:26;9.43;;;6.72;;
47812;SDS011;34221;45.296;9.516;2024-02-23T00:01:41;9.32;;;6.40;;
47812;SDS011;34221;45.296;9.516;2024-02-23T00:01:56;8.57;;;6.03;;
47812;SDS011;34221;45.296;9.516;2024-02-23T00:02:11;7.80;;;6.03;;
47812;SDS011;34221;45.296;9.516;2024-02-23T00:02:26;7.50;;;6.55;;
47812;SDS011;34221;45.296;9.516;2024-02-23T00:02:40;9.05;;;7.15;;
47812;SDS011;34221;45.296;9.516;2024-02-23T00:02:55;11.65;;;7.82;;
47812;SDS011;34221;45.296;9.516;2024-02-23T00:03:12;10.73;;;7.20;;
47812;SDS011;34221;45.296;9.516;2024-02-23T00:03:27;9.20;;;6.80;;
47812;SDS011;34221;45.296;9.516;2024-02-23T00:03:41;8.80;;;6.68;;
47812;SDS011;34221;45.296;9.516;2024-02-23T00:03:56;8.48;;;6.32;;
47812;SDS011;34221;45.296;9.516;2024-02-23T00:04:11;9.05;;;6.25;;
47812;SDS011;34221;45.296;9.516;2024-02-23T00:04:26;8.65;;;5.97;;
47812;SDS011;34221;45.296;9.516;2024-02-23T00:04:41;8.10;;;5.88;;
47812;SDS011;34221;45.296;9.516;2024-02-23T00:04:56;8.95;;;6.13;;
47812;SDS011;34221;45.296;9.516;2024-02-23T00:05:11;8.63;;;6.32;;
47812;SDS011;34221;45.296;9.516;2024-02-23T00:05:26;8.43;;;6.38;;
47812;SDS011;34221;45.296;9.516;2024-02-23T00:05:41;10.57;;;6.82;;
47812;SDS011;34221;45.296;9.516;2024-02-23T00:05:57;10.38;;;6.65;;
47812;SDS011;34221;45.296;9.516;2024-02-23T00:06:13;8.50;;;6.40;;
47812;SDS011;34221;45.296;9.516;2024-02-23T00:06:29;8.05;;;6.22;;
47812;SDS011;34221;45.296;9.516;2024-02-23T00:06:43;8.00;;;6.32;;
47812;SDS011;34221;45.296;9.516;2024-02-23T00:06:59;8.77;;;6.65;;
47812;SDS011;34221;45.296;9.516;2024-02-23T00:07:14;9.35;;;6.80;;
47812;SDS011;34221;45.296;9.516;2024-02-23T00:07:29;8.82;;;6.40;;
47812;SDS011;34221;45.296;9.516;2024-02-23T00:07:43;8.50;;;6.00;;
47812;SDS011;34221;45.296;9.516;2024-02-23T00:07:58;8.10;;;6.07;;
47812;SDS011;34221;45.296;9.516;2024-02-23T00:08:13;8.25;;;5.90;;
47812;SDS011;34221;45.296;9.516;2024-02-23T00:08:28;8.93;;;6.03;;
47812;SDS011;34221;45.296;9.516;2024-02-23T00:08:43;9.00;;;6.30;;
47812;SDS011;34221;45.296;9.516;2024-02-23T00:08:58;8.80;;;6.20;;
47812;SDS011;34221;45.296;9.516;2024-02-23T00:09:13;8.77;;;6.07;;
47812;SDS011;34221;45.296;9.516;2024-02-23T00:09:28;8.65;;;6.28;;
47812;SDS011;34221;45.296;9.516;2024-02-23T00:09:43;8.65;;;6.53;;
47812;SDS011;34221;45.296;9.516;2024-02-23T00:09:58;8.57;;;6.78;;
47812;SDS011;34221;45.296;9.516;2024-02-23T00:10:13;9.02;;;6.70;;
47812;SDS011;34221;45.296;9.516;2024-02-23T00:10:28;9.40;;;6.43;;
47812;SDS011;34221;45.296;9.516;2024-02-23T00:10:43;8.90;;;6.13;;
47812;SDS011;34221;45.296;9.516;2024-02-23T00:10:58;8.68;;;6.30;;
47812;SDS011;34221;45.296;9.516;2024-02-23T00:11:13;9.23;;;6.90;;
47812;SDS011;34221;45.296;9.516;2024-02-23T00:11:28;8.77;;;6.47;;
47812;SDS011;34221;45.296;9.516;2024-02-23T00:11:43;10.05;;;6.45;;
47812;SDS011;34221;45.296;9.516;2024-02-23T00:11:59;11.52;;;7.00;;
47812;SDS011;34221;45.296;9.516;2024-02-23T00:12:14;9.85;;;7.00;;
47812;SDS011;34221;45.296;9.516;2024-02-23T00:12:29;8.63;;;6.68;;
47812;SDS011;34221;45.296;9.516;2024-02-23T00:12:43;7.70;;;5.93;;
47812;SDS011;34221;45.296;9.516;2024-02-23T00:12:58;9.53;;;6.50;;
47812;SDS011;34221;45.296;9.516;2024-02-23T00:13:15;10.15;;;6.68;;
47812;SDS011;34221;45.296;9.516;2024-02-23T00:13:30;8.50;;;6.13;;
47812;SDS011;34221;45.296;9.516;2024-02-23T00:13:45;7.90;;;5.97;;
47812;SDS011;34221;45.296;9.516;2024-02-23T00:14:00;7.43;;;5.80;;
47812;SDS011;34221;45.296;9.516;2024-02-23T00:14:15;7.93;;;5.50;;
47812;SDS011;34221;45.296;9.516;2024-02-23T00:14:34;8.27;;;5.57;;
47812;SDS011;34221;45.296;9.516;2024-02-23T00:14:52;7.78;;;5.78;;
47812;SDS011;34221;45.296;9.516;2024-02-23T00:15:07;7.95;;;6.10;;
47812;SDS011;34221;45.296;9.516;2024-02-23T00:15:22;8.68;;;6.10;;
47812;SDS011;34221;45.296;9.516;2024-02-23T00:15:39;8.32;;;5.68;;
47812;SDS011;34221;45.296;9.516;2024-02-23T00:15:54;8.48;;;5.90;;
47812;SDS011;34221;45.296;9.516;2024-02-23T00:16:09;9.18;;;6.47;;
47812;SDS011;34221;45.296;9.516;2024-02-23T00:16:24;8.48;;;6.30;;
47812;SDS011;34221;45.296;9.516;2024-02-23T00:16:40;8.52;;;5.97;;
47812;SDS011;34221;45.296;9.516;2024-02-23T00:16:55;8.07;;;6.10;;
47812;SDS011;34221;45.296;9.516;2024-02-23T00:17:12;8.45;;;6.05;;
47812;SDS011;34221;45.296;9.516;2024-02-23T00:17:27;8.48;;;5.80;;
47812;SDS011;34221;45.296;9.516;2024-02-23T00:17:42;7.70;;;5.57;;
47812;SDS011;34221;45.296;9.516;2024-02-23T00:17:57;7.70;;;5.70;;
47812;SDS011;34221;45.296;9.516;2024-02-23T00:18:11;8.82;;;6.38;;
47812;SDS011;34221;45.296;9.516;2024-02-23T00:18:27;8.98;;;6.32;;
47812;SDS011;34221;45.296;9.516;2024-02-23T00:18:42;8.23;;;5.95;;
47812;SDS011;34221;45.296;9.516;2024-02-23T00:18:57;8.35;;;6.38;;
47812;SDS011;34221;45.296;9.516;2024-02-23T00:19:12;8.60;;;6.50;;
47812;SDS011;34221;45.296;9.516;2024-02-23T00:19:29;8.77;;;6.43;;
47812;SDS011;34221;45.296;9.516;2024-02-23T00:19:45;9.23;;;6.47;;
47812;SDS011;34221;45.296;9.516;2024-02-23T00:20:01;8.55;;;5.95;;
47812;SDS011;34221;45.296;9.516;2024-02-23T00:20:16;7.40;;;5.32;;
47812;SDS011;34221;45.296;9.516;2024-02-23T00:20:31;8.48;;;6.10;;
47812;SDS011;34221;45.296;9.516;2024-02-23T00:20:47;9.07;;;6.60;;
47812;SDS011;34221;45.296;9.516;2024-02-23T00:21:01;9.27;;;6.20;;
47812;SDS011;34221;45.296;9.516;2024-02-23T00:21:17;9.93;;;6.45;;
47812;SDS011;34221;45.296;9.516;2024-02-23T00:21:32;9.45;;;6.68;;
47812;SDS011;34221;45.296;9.516;2024-02-23T00:21:47;8.82;;;6.30;;
47812;SDS011;34221;45.296;9.516;2024-02-23T00:22:04;8.63;;;6.57;;
47812;SDS011;34221;45.296;9.516;2024-02-23T00:22:19;7.80;;;6.70;;
47812;SDS011;34221;45.296;9.516;2024-02-23T00:22:34;8.57;;;6.30;;
47812;SDS011;34221;45.296;9.516;2024-02-23T00:22:49;10.18;;;6.40;;
47812;SDS011;34221;45.296;9.516;2024-02-23T00:23:04;9.50;;;6.25;;
47812;SDS011;34221;45.296;9.516;2024-02-23T00:23:18;7.85;;;5.93;;
47812;SDS011;34221;45.296;9.516;2024-02-23T00:23:33;7.60;;;5.68;;
47812;SDS011;34221;45.296;9.516;2024-02-23T00:23:48;8.05;;;5.63;;
47812;SDS011;34221;45.296;9.516;2024-02-23T00:24:03;7.45;;;5.57;;
47812;SDS011;34221;45.296;9.516;2024-02-23T00:24:19;7.53;;;5.88;;
47812;SDS011;34221;45.296;9.516;2024-02-23T00:24:37;6.75;;;5.75;;
47812;SDS011;34221;45.296;9.516;2024-02-23T00:24:52;7.18;;;5.90;;
47812;SDS011;34221;45.296;9.516;2024-02-23T00:25:07;7.90;;;6.22;;
47812;SDS011;34221;45.296;9.516;2024-02-23T00:25:22;8.02;;;6.35;;
47812;SDS011;34221;45.296;9.516;2024-02-23T00:25:37;8.60;;;6.03;;
47812;SDS011;34221;45.296;9.516;2024-02-23T00:25:52;9.13;;;6.32;;
47812;SDS011;34221;45.296;9.516;2024-02-23T00:26:07;9.88;;;7.18;;
47812;SDS011;34221;45.296;9.516;2024-02-23T00:26:22;9.98;;;6.90;;
47812;SDS011;34221;45.296;9.516;2024-02-23T00:26:37;9.77;;;6.70;;
47812;SDS011;34221;45.296;9.516;2024-02-23T00:26:52;10.65;;;7.00;;
47812;SDS011;34221;45.296;9.516;2024-02-23T00:27:07;10.98;;;6.72;;
47812;SDS011;34221;45.296;9.516;2024-02-23T00:27:22;10.30;;;6.60;;
47812;SDS011;34221;45.296;9.516;2024-02-23T00:27:37;8.63;;;6.15;;
47812;SDS011;34221;45.296;9.516;2024-02-23T00:27:53;7.93;;;5.70;;
47812;SDS011;34221;45.296;9.516;2024-02-23T00:28:08;8.25;;;6.05;;
47812;SDS011;34221;45.296;9.516;2024-02-23T00:28:23;8.27;;;6.55;;
47812;SDS011;34221;45.296;9.516;2024-02-23T00:28:39;8.98;;;6.57;;
47812;SDS011;34221;45.296;9.516;2024-02-23T00:28:53;9.27;;;6.47;;
47812;SDS011;34221;45.296;9.516;2024-02-23T00:29:08;8.95;;;6.70;;
47812;SDS011;34221;45.296;9.516;2024-02-23T00:29:23;8.13;;;6.30;;
47812;SDS011;34221;45.296;9.516;2024-02-23T00:29:38;7.65;;;5.95;;
47812;SDS011;34221;45.296;9.516;2024-02-23T00:29:53;7.57;;;6.07;;
47812;SDS011;34221;45.296;9.516;2024-02-23T00:30:08;8.02;;;6.32;;
47812;SDS011;34221;45.296;9.516;2024-02-23T00:30:24;8.45;;;6.32;;
47812;SDS011;34221;45.296;9.516;2024-02-23T00:30:39;8.55;;;6.07;;
47812;SDS011;34221;45.296;9.516;2024-02-23T00:30:54;8.93;;;6.40;;
47812;SDS011;34221;45.296;9.516;2024-02-23T00:31:08;9.10;;;6.22;;
47812;SDS011;34221;45.296;9.516;2024-02-23T00:31:23;8.48;;;5.95;;
47812;SDS011;34221;45.296;9.516;2024-02-23T00:32:02;8.48;;;5.75;;
47812;SDS011;34221;45.296;9.516;2024-02-23T00:32:18;9.25;;;5.97;;
47812;SDS011;34221;45.296;9.516;2024-02-23T00:32:33;7.82;;;5.95;;
47812;SDS011;34221;45.296;9.516;2024-02-23T00:32:47;7.70;;;5.90;;
47812;SDS011;34221;45.296;9.516;2024-02-23T00:33:02;8.70;;;6.32;;
47812;SDS011;34221;45.296;9.516;2024-02-23T00:33:19;9.00;;;6.57;;
47812;SDS011;34221;45.296;9.516;2024-02-23T00:33:34;9.40;;;6.55;;
47812;SDS011;34221;45.296;9.516;2024-02-23T00:33:51;10.65;;;6.38;;
47812;SDS011;34221;45.296;9.516;2024-02-23T00:34:06;9.35;;;6.15;;
47812;SDS011;34221;45.296;9.516;2024-02-23T00:34:24;7.47;;;6.03;;
47812;SDS011;34221;45.296;9.516;2024-02-23T00:34:39;8.38;;;6.47;;
47812;SDS011;34221;45.296;9.516;2024-02-23T00:34:56;8.50;;;6.10;;
47812;SDS011;34221;45.296;9.516;2024-02-23T00:35:12;7.82;;;5.60;;
47812;SDS011;34221;45.296;9.516;2024-02-23T00:35:27;7.63;;;6.03;;
47812;SDS011;34221;45.296;9.516;2024-02-23T00:35:41;8.23;;;6.00;;
47812;SDS011;34221;45.296;9.516;2024-02-23T00:35:57;9.45;;;6.55;;
47812;SDS011;34221;45.296;9.516;2024-02-23T00:36:11;8.68;;;6.50;;
47812;SDS011;34221;45.296;9.516;2024-02-23T00:36:26;9.40;;;5.95;;
47812;SDS011;34221;45.296;9.516;2024-02-23T00:36:41;10.10;;;5.70;;
47812;SDS011;34221;45.296;9.516;2024-02-23T00:36:58;8.13;;;5.85;;
47812;SDS011;34221;45.296;9.516;2024-02-23T00:37:13;9.90;;;6.32;;
47812;SDS011;34221;45.296;9.516;2024-02-23T00:37:29;12.13;;;6.38;;
47812;SDS011;34221;45.296;9.516;2024-02-23T00:37:49;8.70;;;6.07;;
47812;SDS011;34221;45.296;9.516;2024-02-23T00:38:04;8.32;;;5.97;;
47812;SDS011;34221;45.296;9.516;2024-02-23T00:38:19;7.68;;;5.82;;
47812;SDS011;34221;45.296;9.516;2024-02-23T00:38:34;7.47;;;5.47;;
47812;SDS011;34221;45.296;9.516;2024-02-23T00:38:49;7.70;;;5.32;;
47812;SDS011;34221;45.296;9.516;2024-02-23T00:39:04;8.57;;;6.07;;
47812;SDS011;34221;45.296;9.516;2024-02-23T00:39:19;9.05;;;6.57;;
47812;SDS011;34221;45.296;9.516;2024-02-23T00:39:34;8.25;;;6.07;;
47812;SDS011;34221;45.296;9.516;2024-02-23T00:39:48;8.10;;;5.72;;
47812;SDS011;34221;45.296;9.516;2024-02-23T00:40:04;8.60;;;5.88;;
47812;SDS011;34221;45.296;9.516;2024-02-23T00:40:20;9.70;;;6.55;;
47812;SDS011;34221;45.296;9.516;2024-02-23T00:40:35;9.43;;;6.70;;
47812;SDS011;34221;45.296;9.516;2024-02-23T00:40:50;9.52;;;6.70;;
47812;SDS011;34221;45.296;9.516;2024-02-23T00:41:04;8.90;;;6.40;;
47812;SDS011;34221;45.296;9.516;2024-02-23T00:41:20;8.27;;;6.28;;
47812;SDS011;34221;45.296;9.516;2024-02-23T00:41:35;8.07;;;6.10;;
47812;SDS011;34221;45.296;9.516;2024-02-23T00:41:51;8.10;;;5.90;;
47812;SDS011;34221;45.296;9.516;2024-02-23T00:42:06;8.52;;;5.68;;
47812;SDS011;34221;45.296;9.516;2024-02-23T00:42:21;8.57;;;5.88;;
47812;SDS011;34221;45.296;9.516;2024-02-23T00:42:36;8.73;;;5.85;;
47812;SDS011;34221;45.296;9.516;2024-02-23T00:42:51;7.70;;;5.43;;
47812;SDS011;34221;45.296;9.516;2024-02-23T00:43:06;7.63;;;5.80;;
47812;SDS011;34221;45.296;9.516;2024-02-23T00:43:21;7.78;;;5.68;;
47812;SDS011;34221;45.296;9.516;2024-02-23T00:43:37;7.95;;;6.00;;
47812;SDS011;34221;45.296;9.516;2024-02-23T00:43:53;8.75;;;6.55;;
47812;SDS011;34221;45.296;9.516;2024-02-23T00:44:08;7.72;;;5.80;;
47812;SDS011;34221;45.296;9.516;2024-02-23T00:44:23;7.88;;;5.50;;
47812;SDS011;34221;45.296;9.516;2024-02-23T00:44:38;8.65;;;6.00;;
47812;SDS011;34221;45.296;9.516;2024-02-23T00:44:53;7.87;;;6.00;;
47812;SDS011;34221;45.296;9.516;2024-02-23T00:45:08;8.10;;;6.23;;
47812;SDS011;34221;45.296;9.516;2024-02-23T00:45:23;8.73;;;6.38;;
47812;SDS011;34221;45.296;9.516;2024-02-23T00:45:37;9.15;;;6.15;;
47812;SDS011;34221;45.296;9.516;2024-02-23T00:45:52;9.90;;;6.32;;
47812;SDS011;34221;45.296;9.516;2024-02-23T00:46:07;8.77;;;6.50;;
47812;SDS011;34221;45.296;9.516;2024-02-23T00:46:23;7.95;;;6.28;;
47812;SDS011;34221;45.296;9.516;2024-02-23T00:46:38;8.77;;;6.38;;
47812;SDS011;34221;45.296;9.516;2024-02-23T00:46:53;8.20;;;6.10;;
47812;SDS011;34221;45.296;9.516;2024-02-23T00:47:07;7.95;;;5.65;;
47812;SDS011;34221;45.296;9.516;2024-02-23T00:47:23;9.05;;;6.03;;
47812;SDS011;34221;45.296;9.516;2024-02-23T00:47:38;9.27;;;6.43;;
47812;SDS011;34221;45.296;9.516;2024-02-23T00:47:53;9.07;;;6.60;;
47812;SDS011;34221;45.296;9.516;2024-02-23T00:48:08;8.80;;;6.93;;
47812;SDS011;34221;45.296;9.516;2024-02-23T00:48:23;9.00;;;7.28;;
47812;SDS011;34221;45.296;9.516;2024-02-23T00:48:38;8.88;;;6.65;;
47812;SDS011;34221;45.296;9.516;2024-02-23T00:48:53;8.57;;;6.05;;
47812;SDS011;34221;45.296;9.516;2024-02-23T00:49:08;8.63;;;6.47;;
47812;SDS011;34221;45.296;9.516;2024-02-23T00:49:23;7.72;;;6.00;;
47812;SDS011;34221;45.296;9.516;2024-02-23T00:49:38;7.13;;;5.67;;
47812;SDS011;34221;45.296;9.516;2024-02-23T00:49:53;7.33;;;5.83;;
47812;SDS011;34221;45.296;9.516;2024-02-23T00:50:08;8.07;;;6.10;;
47812;SDS011;34221;45.296;9.516;2024-02-23T00:50:24;9.02;;;6.22;;
47812;SDS011;34221;45.296;9.516;2024-02-23T00:50:41;8.25;;;6.13;;
47812;SDS011;34221;45.296;9.516;2024-02-23T00:50:55;8.57;;;6.70;;
47812;SDS011;34221;45.296;9.516;2024-02-23T00:51:10;8.23;;;6.30;;
47812;SDS011;34221;45.296;9.516;2024-02-23T00:51:25;7.75;;;5.53;;
47812;SDS011;34221;45.296;9.516;2024-02-23T00:51:40;8.57;;;5.85;;
47812;SDS011;34221;45.296;9.516;2024-02-23T00:51:55;9.77;;;6.27;;
47812;SDS011;34221;45.296;9.516;2024-02-23T00:52:10;9.27;;;6.05;;
47812;SDS011;34221;45.296;9.516;2024-02-23T00:52:25;7.82;;;5.97;;
47812;SDS011;34221;45.296;9.516;2024-02-23T00:52:40;9.18;;;5.85;;
47812;SDS011;34221;45.296;9.516;2024-02-23T00:52:55;10.13;;;5.90;;
47812;SDS011;34221;45.296;9.516;2024-02-23T00:53:10;7.97;;;5.63;;
47812;SDS011;34221;45.296;9.516;2024-02-23T00:53:25;6.88;;;5.35;;
47812;SDS011;34221;45.296;9.516;2024-02-23T00:53:40;7.43;;;5.50;;
47812;SDS011;34221;45.296;9.516;2024-02-23T00:53:55;8.23;;;5.85;;
47812;SDS011;34221;45.296;9.516;2024-02-23T00:54:10;9.13;;;6.70;;
47812;SDS011;34221;45.296;9.516;2024-02-23T00:54:24;8.85;;;6.82;;
47812;SDS011;34221;45.296;9.516;2024-02-23T00:54:39;8.15;;;6.72;;
47812;SDS011;34221;45.296;9.516;2024-02-23T00:54:54;7.63;;;6.10;;
47812;SDS011;34221;45.296;9.516;2024-02-23T00:55:09;8.10;;;5.90;;
47812;SDS011;34221;45.296;9.516;2024-02-23T00:55:25;7.85;;;5.95;;
47812;SDS011;34221;45.296;9.516;2024-02-23T00:55:41;7.50;;;5.68;;
47812;SDS011;34221;45.296;9.516;2024-02-23T00:55:55;8.05;;;5.80;;
47812;SDS011;34221;45.296;9.516;2024-02-23T00:56:10;8.02;;;6.00;;
47812;SDS011;34221;45.296;9.516;2024-02-23T00:56:25;8.25;;;6.00;;
47812;SDS011;34221;45.296;9.516;2024-02-23T00:56:41;8.35;;;5.97;;
47812;SDS011;34221;45.296;9.516;2024-02-23T00:56:56;8.83;;;6.03;;
47812;SDS011;34221;45.296;9.516;2024-02-23T00:57:11;8.75;;;5.82;;
47812;SDS011;34221;45.296;9.516;2024-02-23T00:57:26;9.45;;;6.78;;
47812;SDS011;34221;45.296;9.516;2024-02-23T00:57:43;8.88;;;6.78;;
47812;SDS011;34221;45.296;9.516;2024-02-23T00:57:59;8.93;;;6.45;;
47812;SDS011;34221;45.296;9.516;2024-02-23T00:58:14;9.90;;;6.97;;
47812;SDS011;34221;45.296;9.516;2024-02-23T00:58:30;9.18;;;6.47;;
47812;SDS011;34221;45.296;9.516;2024-02-23T00:58:45;9.82;;;6.15;;
47812;SDS011;34221;45.296;9.516;2024-02-23T00:58:59;10.38;;;6.72;;
47812;SDS011;34221;45.296;9.516;2024-02-23T00:59:14;9.30;;;6.78;;
47812;SDS011;34221;45.296;9.516;2024-02-23T00:59:29;9.73;;;7.13;;
47812;SDS011;34221;45.296;9.516;2024-02-23T00:59:44;10.05;;;6.82;;
47812;SDS011;34221;45.296;9.516;2024-02-23T00:59:59;9.20;;;5.90;;
47812;SDS011;34221;45.296;9.516;2024-02-23T01:00:14;9.80;;;5.68;;
47812;SDS011;34221;45.296;9.516;2024-02-23T01:00:29;10.13;;;6.13;;
47812;SDS011;34221;45.296;9.516;2024-02-23T01:00:44;8.80;;;6.40;;
47812;SDS011;34221;45.296;9.516;2024-02-23T01:00:59;9.20;;;6.60;;
47812;SDS011;34221;45.296;9.516;2024-02-23T01:01:14;9.13;;;6.47;;
47812;SDS011;34221;45.296;9.516;2024-02-23T01:01:30;9.38;;;6.50;;
47812;SDS011;34221;45.296;9.516;2024-02-23T01:01:46;9.00;;;6.30;;
47812;SDS011;34221;45.296;9.516;2024-02-23T01:02:01;7.85;;;5.82;;
47812;SDS011;34221;45.296;9.516;2024-02-23T01:02:16;7.88;;;5.88;;
47812;SDS011;34221;45.296;9.516;2024-02-23T01:02:31;7.85;;;5.30;;
47812;SDS011;34221;45.296;9.516;2024-02-23T01:02:47;8.13;;;5.35;;
47812;SDS011;34221;45.296;9.516;2024-02-23T01:03:02;7.72;;;5.70;;
47812;SDS011;34221;45.296;9.516;2024-02-23T01:03:19;7.40;;;5.68;;
47812;SDS011;34221;45.296;9.516;2024-02-23T01:03:34;7.03;;;5.45;;
47812;SDS011;34221;45.296;9.516;2024-02-23T01:03:49;7.35;;;5.82;;
47812;SDS011;34221;45.296;9.516;2024-02-23T01:04:04;8.32;;;6.00;;
47812;SDS011;34221;45.296;9.516;2024-02-23T01:04:19;9.93;;;6.55;;
47812;SDS011;34221;45.296;9.516;2024-02-23T01:04:34;9.98;;;6.53;;
47812;SDS011;34221;45.296;9.516;2024-02-23T01:04:49;8.18;;;6.03;;
47812;SDS011;34221;45.296;9.516;2024-02-23T01:05:04;8.23;;;6.32;;
47812;SDS011;34221;45.296;9.516;2024-02-23T01:05:20;8.23;;;6.05;;
47812;SDS011;34221;45.296;9.516;2024-02-23T01:05:35;9.43;;;5.80;;
47812;SDS011;34221;45.296;9.516;2024-02-23T01:05:51;10.52;;;6.38;;
47812;SDS011;34221;45.296;9.516;2024-02-23T01:06:06;7.63;;;5.53;;
47812;SDS011;34221;45.296;9.516;2024-02-23T01:06:21;6.43;;;4.90;;
47812;SDS011;34221;45.296;9.516;2024-02-23T01:06:38;7.15;;;5.25;;
47812;SDS011;34221;45.296;9.516;2024-02-23T01:06:53;7.90;;;5.60;;
47812;SDS011;34221;45.296;9.516;2024-02-23T01:07:08;8.40;;;5.90;;
47812;SDS011;34221;45.296;9.516;2024-02-23T01:07:23;7.82;;;6.03;;
47812;SDS011;34221;45.296;9.516;2024-02-23T01:07:38;8.07;;;6.00;;
47812;SDS011;34221;45.296;9.516;2024-02-23T01:07:53;8.13;;;5.45;;
47812;SDS011;34221;45.296;9.516;2024-02-23T01:08:08;7.05;;;5.20;;
47812;SDS011;34221;45.296;9.516;2024-02-23T01:08:23;8.20;;;5.50;;
47812;SDS011;34221;45.296;9.516;2024-02-23T01:08:38;9.18;;;5.78;;
47812;SDS011;34221;45.296;9.516;2024-02-23T01:08:54;8.48;;;5.50;;
47812;SDS011;34221;45.296;9.516;2024-02-23T01:09:09;7.87;;;5.50;;
47812;SDS011;34221;45.296;9.516;2024-02-23T01:09:24;7.32;;;5.65;;
47812;SDS011;34221;45.296;9.516;2024-02-23T01:09:39;7.45;;;5.57;;
47812;SDS011;34221;45.296;9.516;2024-02-23T01:09:54;6.95;;;5.45;;
47812;SDS011;34221;45.296;9.516;2024-02-23T01:10:09;6.85;;;5.32;;
47812;SDS011;34221;45.296;9.516;2024-02-23T01:10:23;7.05;;;5.32;;
47812;SDS011;34221;45.296;9.516;2024-02-23T01:10:38;8.15;;;5.55;;
47812;SDS011;34221;45.296;9.516;2024-02-23T01:10:53;8.18;;;5.43;;
47812;SDS011;34221;45.296;9.516;2024-02-23T01:11:08;8.20;;;5.50;;
47812;SDS011;34221;45.296;9.516;2024-02-23T01:11:23;7.88;;;5.22;;
47812;SDS011;34221;45.296;9.516;2024-02-23T01:11:38;6.93;;;4.88;;
47812;SDS011;34221;45.296;9.516;2024-02-23T01:11:53;7.18;;;4.93;;
47812;SDS011;34221;45.296;9.516;2024-02-23T01:12:08;7.72;;;5.00;;
47812;SDS011;34221;45.296;9.516;2024-02-23T01:12:23;7.63;;;5.18;;
47812;SDS011;34221;45.296;9.516;2024-02-23T01:12:38;6.97;;;5.20;;
47812;SDS011;34221;45.296;9.516;2024-02-23T01:12:53;7.13;;;5.37;;
47812;SDS011;34221;45.296;9.516;2024-02-23T01:13:08;6.82;;;5.10;;
47812;SDS011;34221;45.296;9.516;2024-02-23T01:13:23;6.63;;;4.75;;
47812;SDS011;34221;45.296;9.516;2024-02-23T01:13:38;6.75;;;5.40;;
47812;SDS011;34221;45.296;9.516;2024-02-23T01:13:52;7.15;;;5.80;;
47812;SDS011;34221;45.296;9.516;2024-02-23T01:14:07;7.18;;;5.13;;
47812;SDS011;34221;45.296;9.516;2024-02-23T01:14:22;6.45;;;4.50;;
47812;SDS011;34221;45.296;9.516;2024-02-23T01:14:37;7.63;;;4.97;;
47812;SDS011;34221;45.296;9.516;2024-02-23T01:14:53;8.45;;;5.80;;
47812;SDS011;34221;45.296;9.516;2024-02-23T01:15:08;6.88;;;5.40;;
47812;SDS011;34221;45.296;9.516;2024-02-23T01:15:23;7.38;;;5.63;;
47812;SDS011;34221;45.296;9.516;2024-02-23T01:15:38;8.02;;;6.03;;
47812;SDS011;34221;45.296;9.516;2024-02-23T01:15:53;7.10;;;5.45;;
47812;SDS011;34221;45.296;9.516;2024-02-23T01:16:08;6.97;;;5.20;;
47812;SDS011;34221;45.296;9.516;2024-02-23T01:16:23;6.93;;;5.03;;
47812;SDS011;34221;45.296;9.516;2024-02-23T01:16:38;7.30;;;4.90;;
47812;SDS011;34221;45.296;9.516;2024-02-23T01:16:53;7.57;;;5.13;;
47812;SDS011;34221;45.296;9.516;2024-02-23T01:17:08;8.70;;;5.28;;
47812;SDS011;34221;45.296;9.516;2024-02-23T01:17:22;8.05;;;5.22;;
47812;SDS011;34221;45.296;9.516;2024-02-23T01:17:37;6.72;;;5.20;;
47812;SDS011;34221;45.296;9.516;2024-02-23T01:17:52;8.05;;;5.35;;
47812;SDS011;34221;45.296;9.516;2024-02-23T01:18:07;7.90;;;5.30;;
47812;SDS011;34221;45.296;9.516;2024-02-23T01:18:22;7.70;;;5.47;;
47812;SDS011;34221;45.296;9.516;2024-02-23T01:18:37;7.68;;;5.22;;
47812;SDS011;34221;45.296;9.516;2024-02-23T01:18:52;7.00;;;4.68;;
47812;SDS011;34221;45.296;9.516;2024-02-23T01:19:07;7.30;;;5.00;;
47812;SDS011;34221;45.296;9.516;2024-02-23T01:19:23;6.75;;;5.00;;
47812;SDS011;34221;45.296;9.516;2024-02-23T01:19:38;6.35;;;4.78;;
47812;SDS011;34221;45.296;9.516;2024-02-23T01:19:53;7.05;;;4.63;;
47812;SDS011;34221;45.296;9.516;2024-02-23T01:20:08;7.38;;;4.80;;
47812;SDS011;34221;45.296;9.516;2024-02-23T01:20:23;7.07;;;4.90;;
47812;SDS011;34221;45.296;9.516;2024-02-23T01:20:38;6.88;;;4.72;;
47812;SDS011;34221;45.296;9.516;2024-02-23T01:20:53;7.63;;;5.30;;
47812;SDS011;34221;45.296;9.516;2024-02-23T01:21:08;8.87;;;5.57;;
47812;SDS011;34221;45.296;9.516;2024-02-23T01:21:23;8.05;;;5.50;;
47812;SDS011;34221;45.296;9.516;2024-02-23T01:21:38;7.35;;;5.50;;
47812;SDS011;34221;45.296;9.516;2024-02-23T01:21:52;7.30;;;5.14;;
47812;SDS011;34221;45.296;9.516;2024-02-23T01:22:13;6.38;;;4.78;;
47812;SDS011;34221;45.296;9.516;2024-02-23T01:22:29;6.57;;;5.00;;
47812;SDS011;34221;45.296;9.516;2024-02-23T01:22:44;6.43;;;4.82;;
47812;SDS011;34221;45.296;9.516;2024-02-23T01:22:59;6.93;;;4.95;;
47812;SDS011;34221;45.296;9.516;2024-02-23T01:23:13;6.93;;;4.97;;
47812;SDS011;34221;45.296;9.516;2024-02-23T01:23:28;6.43;;;5.07;;
47812;SDS011;34221;45.296;9.516;2024-02-23T01:23:43;7.35;;;5.10;;
47812;SDS011;34221;45.296;9.516;2024-02-23T01:23:58;7.63;;;4.85;;
47812;SDS011;34221;45.296;9.516;2024-02-23T01:24:14;6.15;;;4.45;;
47812;SDS011;34221;45.296;9.516;2024-02-23T01:24:29;5.45;;;4.45;;
47812;SDS011;34221;45.296;9.516;2024-02-23T01:24:44;5.63;;;4.53;;
47812;SDS011;34221;45.296;9.516;2024-02-23T01:24:59;6.05;;;4.47;;
47812;SDS011;34221;45.296;9.516;2024-02-23T01:25:14;6.85;;;4.60;;
47812;SDS011;34221;45.296;9.516;2024-02-23T01:25:29;6.88;;;5.07;;
47812;SDS011;34221;45.296;9.516;2024-02-23T01:25:45;6.97;;;5.50;;
47812;SDS011;34221;45.296;9.516;2024-02-23T01:25:59;7.22;;;5.20;;
47812;SDS011;34221;45.296;9.516;2024-02-23T01:26:15;6.60;;;4.70;;
47812;SDS011;34221;45.296;9.516;2024-02-23T01:26:30;6.50;;;4.72;;
47812;SDS011;34221;45.296;9.516;2024-02-23T01:26:45;7.07;;;4.97;;
47812;SDS011;34221;45.296;9.516;2024-02-23T01:27:00;6.97;;;4.82;;
47812;SDS011;34221;45.296;9.516;2024-02-23T01:27:15;6.43;;;4.70;;
47812;SDS011;34221;45.296;9.516;2024-02-23T01:27:30;6.30;;;4.53;;
47812;SDS011;34221;45.296;9.516;2024-02-23T01:27:45;7.05;;;4.82;;
47812;SDS011;34221;45.296;9.516;2024-02-23T01:28:00;6.68;;;4.80;;
47812;SDS011;34221;45.296;9.516;2024-02-23T01:28:15;6.10;;;4.28;;
47812;SDS011;34221;45.296;9.516;2024-02-23T01:28:30;5.95;;;4.10;;
47812;SDS011;34221;45.296;9.516;2024-02-23T01:28:45;5.30;;;3.88;;
47812;SDS011;34221;45.296;9.516;2024-02-23T01:28:59;5.95;;;4.18;;
47812;SDS011;34221;45.296;9.516;2024-02-23T01:29:14;6.25;;;4.28;;
47812;SDS011;34221;45.296;9.516;2024-02-23T01:29:31;7.22;;;4.40;;
47812;SDS011;34221;45.296;9.516;2024-02-23T01:29:46;7.30;;;4.40;;
47812;SDS011;34221;45.296;9.516;2024-02-23T01:30:01;5.90;;;4.10;;
47812;SDS011;34221;45.296;9.516;2024-02-23T01:30:16;6.28;;;4.43;;
47812;SDS011;34221;45.296;9.516;2024-02-23T01:30:31;7.00;;;4.65;;
47812;SDS011;34221;45.296;9.516;2024-02-23T01:30:46;6.60;;;4.28;;
47812;SDS011;34221;45.296;9.516;2024-02-23T01:31:02;7.57;;;4.72;;
47812;SDS011;34221;45.296;9.516;2024-02-23T01:31:18;7.40;;;4.93;;
47812;SDS011;34221;45.296;9.516;2024-02-23T01:31:33;6.32;;;4.60;;
47812;SDS011;34221;45.296;9.516;2024-02-23T01:31:48;6.10;;;4.35;;
47812;SDS011;34221;45.296;9.516;2024-02-23T01:32:03;5.57;;;3.95;;